aviador You're here:

FAOR Decoded Metar

TAMBO INTL AIRPT in SOUTH AFRICA
Report Time2018-07-22 02:30:00
UTC Time2018-07-22 03:04:17
Flight Rules vfr VFR
Wind010° at 05 kt
W.Rank010° ranks 7
Current wind is below 010° avg. (9.2)
Visibility9999 m
Phenomena:N/A
Clouds:N/A
Expected CloudBase > 2,000 ft AGL from Temp-Dew spread
CeilingNone
Temp06°C (ISA +2)
Dew Point01°C (71% RH)
AAT2.4°C
QNH1033 hPa
Density Alt5,223 ft
Elevation5,550 ft
Report Wrong Elevation
Raw Report
METAR FAOR 220230Z 01005KT CAVOK 06/01 Q1033 NOSIG=

Extra information for FAOR:More info

Metar Taf Metar & Taf Last 4 Metars F.Rules Stats Wind Profile Meteogram Temp Stats Airport Information Weather charts Add Link Nearby VenuesMetar ALERT Operation Metar Decoded Social comments